createdAt,value
2018-06-17T00:01:14.760Z,22.30
2018-06-17T00:03:44.162Z,22.30
2018-06-17T00:06:13.424Z,22.30
2018-06-17T00:08:42.620Z,22.30
2018-06-17T00:11:12.322Z,22.30
2018-06-17T00:13:41.526Z,22.30
2018-06-17T00:16:10.729Z,22.30
2018-06-17T00:18:39.996Z,22.30
2018-06-17T00:21:09.301Z,22.30
2018-06-17T00:23:38.491Z,22.30
2018-06-17T00:26:07.714Z,22.30
2018-06-17T00:28:36.892Z,22.30
2018-06-17T00:31:06.294Z,22.30
2018-06-17T00:33:35.488Z,22.30
2018-06-17T00:36:04.745Z,22.30
2018-06-17T00:38:34.020Z,22.30
2018-06-17T00:41:03.289Z,22.30
2018-06-17T00:43:32.896Z,22.30
2018-06-17T00:46:02.093Z,22.30
2018-06-17T00:48:31.324Z,22.30
2018-06-17T00:51:00.658Z,22.30
2018-06-17T00:53:29.893Z,22.30
2018-06-17T00:55:59.064Z,22.30
2018-06-17T00:58:29.199Z,22.30
2018-06-17T01:00:58.468Z,22.30
2018-06-17T01:03:27.662Z,22.30
2018-06-17T01:05:56.872Z,22.30
2018-06-17T01:08:26.156Z,22.20
2018-06-17T01:10:55.477Z,22.20
2018-06-17T01:13:24.660Z,22.20
2018-06-17T01:15:53.905Z,22.20
2018-06-17T01:18:23.133Z,22.20
2018-06-17T01:20:52.400Z,22.20
2018-06-17T01:23:21.626Z,22.20
2018-06-17T01:25:50.822Z,22.20
2018-06-17T01:28:20.000Z,22.20
2018-06-17T01:30:49.257Z,22.20
2018-06-17T01:33:18.448Z,22.20
2018-06-17T01:35:47.647Z,22.20
2018-06-17T01:38:16.954Z,22.20
2018-06-17T01:40:46.297Z,22.20
2018-06-17T01:43:15.549Z,22.20
2018-06-17T01:45:44.996Z,22.20
2018-06-17T01:48:14.221Z,22.20
2018-06-17T01:50:43.485Z,22.20
2018-06-17T01:53:12.688Z,22.20
2018-06-17T01:55:41.911Z,22.20
2018-06-17T01:58:11.114Z,22.20
2018-06-17T02:00:40.350Z,22.20
2018-06-17T02:03:14.565Z,22.20
2018-06-17T02:06:51.724Z,22.20
2018-06-17T02:09:25.976Z,22.20
2018-06-17T02:12:00.395Z,22.20
2018-06-17T02:14:35.600Z,22.20
2018-06-17T02:17:05.176Z,22.20
2018-06-17T02:19:34.404Z,22.20
2018-06-17T02:22:03.631Z,22.20
2018-06-17T02:24:32.824Z,22.20
2018-06-17T02:27:02.030Z,22.20
2018-06-17T02:29:31.311Z,22.20
2018-06-17T02:32:00.534Z,22.20
2018-06-17T02:34:29.724Z,22.10
2018-06-17T02:36:58.917Z,22.20
2018-06-17T02:39:28.141Z,22.20
2018-06-17T02:41:57.424Z,22.20
2018-06-17T02:44:26.901Z,22.20
2018-06-17T02:47:01.121Z,22.20
2018-06-17T02:49:36.460Z,22.20
2018-06-17T02:52:11.567Z,22.20
2018-06-17T02:54:42.941Z,22.10
2018-06-17T02:57:13.371Z,22.10
2018-06-17T02:59:43.383Z,22.10
2018-06-17T03:02:13.091Z,22.10
2018-06-17T03:04:42.316Z,22.10
2018-06-17T03:07:11.514Z,22.10
2018-06-17T03:09:40.710Z,22.10
2018-06-17T03:12:09.916Z,22.10
2018-06-17T03:14:39.108Z,22.10
2018-06-17T03:17:08.526Z,22.10
2018-06-17T03:19:37.961Z,22.10
2018-06-17T03:22:07.522Z,22.10
2018-06-17T03:24:41.802Z,22.10
2018-06-17T03:27:16.187Z,22.10
2018-06-17T03:32:24.531Z,22.10
2018-06-17T03:34:58.757Z,22.10
2018-06-17T03:37:27.949Z,22.00
2018-06-17T03:39:57.204Z,22.00
2018-06-17T03:42:26.404Z,22.00
2018-06-17T03:44:55.599Z,22.00
2018-06-17T03:47:24.867Z,22.00
2018-06-17T03:49:54.071Z,22.00
2018-06-17T03:52:23.339Z,22.00
2018-06-17T03:54:52.542Z,22.00
2018-06-17T03:57:21.739Z,22.00
2018-06-17T03:59:50.961Z,22.00
2018-06-17T04:02:20.192Z,22.00
2018-06-17T04:04:54.508Z,22.00
2018-06-17T04:07:23.700Z,22.00
2018-06-17T04:09:52.896Z,22.00
2018-06-17T04:12:22.137Z,22.00
2018-06-17T04:14:51.308Z,22.00
2018-06-17T04:17:20.541Z,22.00
2018-06-17T04:19:49.931Z,22.00
2018-06-17T04:22:19.226Z,21.90
2018-06-17T04:24:48.445Z,22.00
2018-06-17T04:27:17.642Z,22.00
2018-06-17T04:29:46.866Z,22.00
2018-06-17T04:32:16.148Z,22.00
2018-06-17T04:34:45.360Z,22.00
2018-06-17T04:37:14.568Z,22.00
2018-06-17T04:39:43.766Z,22.00
2018-06-17T04:42:12.991Z,22.00
2018-06-17T04:44:42.189Z,21.90
2018-06-17T04:47:11.380Z,21.90
2018-06-17T04:49:40.584Z,21.90
2018-06-17T04:52:09.901Z,21.90
2018-06-17T04:54:39.334Z,21.90
2018-06-17T04:57:08.560Z,21.90
2018-06-17T04:59:37.754Z,21.90
2018-06-17T05:02:07.128Z,21.90
2018-06-17T05:04:36.968Z,21.90
2018-06-17T05:07:06.169Z,21.90
2018-06-17T05:09:35.440Z,21.90
2018-06-17T05:12:04.771Z,21.70
2018-06-17T05:14:33.966Z,21.60
2018-06-17T05:17:03.256Z,21.50
2018-06-17T05:19:32.436Z,21.50
2018-06-17T05:22:01.821Z,21.40
2018-06-17T05:24:31.083Z,21.30
2018-06-17T05:27:00.710Z,21.20
2018-06-17T05:29:30.036Z,21.20
2018-06-17T05:31:59.622Z,21.10
2018-06-17T05:34:28.907Z,21.10
2018-06-17T05:36:58.204Z,21.10
2018-06-17T05:39:27.469Z,21.10
2018-06-17T05:41:56.814Z,21.10
2018-06-17T05:44:26.080Z,21.10
2018-06-17T05:46:55.321Z,21.10
2018-06-17T05:49:24.610Z,21.10
2018-06-17T05:51:53.904Z,21.00
2018-06-17T05:54:23.134Z,21.00
2018-06-17T05:56:52.421Z,21.00
2018-06-17T05:59:21.721Z,21.00
2018-06-17T06:04:20.084Z,20.90
2018-06-17T06:06:49.377Z,20.90
2018-06-17T06:09:18.629Z,20.90
2018-06-17T06:11:48.040Z,20.80
2018-06-17T06:14:17.288Z,20.80
2018-06-17T06:16:46.553Z,20.80
2018-06-17T06:19:15.820Z,20.80
2018-06-17T06:21:45.256Z,20.80
2018-06-17T06:24:14.521Z,20.80
2018-06-17T06:26:43.797Z,20.90
2018-06-17T06:29:13.156Z,21.00
2018-06-17T06:31:42.533Z,21.10
2018-06-17T06:34:11.892Z,21.20
2018-06-17T06:36:41.133Z,21.30
2018-06-17T06:39:11.232Z,21.40
2018-06-17T06:41:40.562Z,21.50
2018-06-17T06:44:10.483Z,21.50
2018-06-17T06:46:39.767Z,21.50
2018-06-17T06:49:09.032Z,21.50
2018-06-17T06:51:38.306Z,21.60
2018-06-17T06:54:07.590Z,21.60
2018-06-17T06:56:36.844Z,21.60
2018-06-17T06:59:06.117Z,21.60
2018-06-17T07:01:46.846Z,21.60
2018-06-17T07:04:27.021Z,21.60
2018-06-17T07:07:07.004Z,21.60
2018-06-17T07:09:47.048Z,21.60
2018-06-17T07:12:16.380Z,21.60
2018-06-17T07:14:45.808Z,21.60
2018-06-17T07:17:25.828Z,21.60
2018-06-17T07:19:55.144Z,21.60
2018-06-17T07:27:32.731Z,21.70
2018-06-17T07:30:01.970Z,21.70
2018-06-17T07:32:32.462Z,21.70
2018-06-17T07:35:02.235Z,21.70
2018-06-17T07:37:31.520Z,21.70
2018-06-17T07:41:03.926Z,21.70
2018-06-17T07:43:33.196Z,21.70
2018-06-17T07:46:02.750Z,21.70
2018-06-17T07:49:47.666Z,21.70
2018-06-17T07:54:51.877Z,21.70
2018-06-17T07:57:22.643Z,21.70
2018-06-17T07:59:51.897Z,21.70
2018-06-17T08:02:21.209Z,21.70
2018-06-17T08:04:50.522Z,21.70
2018-06-17T08:07:19.809Z,21.80
2018-06-17T08:09:49.183Z,21.80
2018-06-17T08:12:18.527Z,21.80
2018-06-17T08:14:47.805Z,21.80
2018-06-17T08:17:17.345Z,21.80
2018-06-17T08:19:46.728Z,21.80
2018-06-17T08:22:16.011Z,21.80
2018-06-17T08:24:45.290Z,21.80
2018-06-17T08:27:14.535Z,21.90
2018-06-17T08:29:43.788Z,21.80
2018-06-17T08:32:13.061Z,21.80
2018-06-17T08:34:42.379Z,21.80
2018-06-17T08:37:11.756Z,21.90
2018-06-17T08:39:41.042Z,21.90
2018-06-17T08:42:10.436Z,21.90
2018-06-17T08:44:39.684Z,21.90
2018-06-17T08:47:08.964Z,21.90
2018-06-17T08:49:38.243Z,21.90
2018-06-17T08:52:07.529Z,21.90
2018-06-17T08:54:36.788Z,22.00
2018-06-17T08:57:06.084Z,21.90
2018-06-17T08:59:35.370Z,21.90
2018-06-17T09:02:04.764Z,21.90
2018-06-17T09:04:34.022Z,21.90
2018-06-17T09:07:03.285Z,21.90
2018-06-17T09:09:32.687Z,22.00
2018-06-17T09:12:02.029Z,22.00
2018-06-17T09:14:31.355Z,21.90
2018-06-17T09:17:00.720Z,21.90
2018-06-17T09:19:30.083Z,21.90
2018-06-17T09:21:59.467Z,21.90
2018-06-17T09:24:28.708Z,21.90
2018-06-17T09:26:58.006Z,21.90
2018-06-17T09:29:27.312Z,22.00
2018-06-17T09:31:56.733Z,22.00
2018-06-17T09:34:26.028Z,22.00
2018-06-17T09:36:55.255Z,22.00
2018-06-17T09:39:24.564Z,22.00
2018-06-17T09:41:54.338Z,22.10
2018-06-17T09:44:23.617Z,22.10
2018-06-17T09:46:52.972Z,22.10
2018-06-17T09:49:22.421Z,22.10
2018-06-17T09:51:51.794Z,22.10
2018-06-17T09:54:21.250Z,22.10
2018-06-17T09:56:50.468Z,22.10
2018-06-17T10:01:48.669Z,22.10
2018-06-17T10:04:18.040Z,22.10
2018-06-17T10:06:47.270Z,22.10
2018-06-17T10:09:16.527Z,22.10
2018-06-17T10:11:45.880Z,22.10
2018-06-17T10:14:15.623Z,22.20
2018-06-17T10:16:46.078Z,22.20
2018-06-17T10:19:15.637Z,22.20
2018-06-17T10:21:45.093Z,22.20
2018-06-17T10:24:14.320Z,22.20
2018-06-17T10:26:43.560Z,22.20
2018-06-17T10:29:12.869Z,22.20
2018-06-17T10:31:42.358Z,22.20
2018-06-17T10:34:11.650Z,22.20
2018-06-17T10:36:40.901Z,22.20
2018-06-17T10:39:10.167Z,22.20
2018-06-17T10:41:39.518Z,22.20
2018-06-17T10:44:08.819Z,22.20
2018-06-17T10:46:38.148Z,22.20
2018-06-17T10:49:07.421Z,22.20
2018-06-17T10:51:36.757Z,22.20
2018-06-17T10:54:06.036Z,22.20
2018-06-17T10:56:35.293Z,22.20
2018-06-17T10:59:04.538Z,22.20
2018-06-17T11:01:33.918Z,22.20
2018-06-17T11:04:03.209Z,22.20
2018-06-17T11:06:32.437Z,22.20
2018-06-17T11:09:01.713Z,22.20
2018-06-17T11:11:31.024Z,22.20
2018-06-17T11:14:00.278Z,22.20
2018-06-17T11:16:29.656Z,22.20
2018-06-17T11:18:59.321Z,22.20
2018-06-17T11:21:28.640Z,22.20
2018-06-17T11:23:58.246Z,22.20
2018-06-17T11:26:27.556Z,22.20
2018-06-17T11:28:56.885Z,22.20
2018-06-17T11:31:26.253Z,22.20
2018-06-17T11:33:55.525Z,22.20
2018-06-17T11:36:24.826Z,22.20
2018-06-17T11:38:54.150Z,22.20
2018-06-17T11:41:23.988Z,22.20
2018-06-17T11:43:53.437Z,22.30
2018-06-17T11:46:22.745Z,22.30
2018-06-17T11:48:52.102Z,22.30
2018-06-17T11:51:21.511Z,22.30
2018-06-17T11:53:50.854Z,22.30
2018-06-17T11:56:20.207Z,22.30
2018-06-17T11:58:49.525Z,22.30
2018-06-17T12:01:18.852Z,22.30
2018-06-17T12:03:48.215Z,22.30
2018-06-17T12:06:17.508Z,22.40
2018-06-17T12:08:46.813Z,22.40
2018-06-17T12:11:16.206Z,22.40
2018-06-17T12:13:45.527Z,22.40
2018-06-17T12:16:14.812Z,22.40
2018-06-17T12:18:44.182Z,22.40
2018-06-17T12:21:13.759Z,22.40
2018-06-17T12:23:43.020Z,22.40
2018-06-17T12:26:12.345Z,22.40
2018-06-17T12:28:41.609Z,22.40
2018-06-17T12:31:11.001Z,22.40
2018-06-17T12:33:40.365Z,22.40
2018-06-17T12:36:10.448Z,22.40
2018-06-17T12:38:40.087Z,22.40
2018-06-17T12:41:10.244Z,22.40
2018-06-17T12:43:40.313Z,22.40
2018-06-17T12:46:09.613Z,22.40
2018-06-17T12:48:38.946Z,22.40
2018-06-17T12:51:08.284Z,22.40
2018-06-17T12:53:37.663Z,22.40
2018-06-17T12:56:07.325Z,22.40
2018-06-17T12:58:36.617Z,22.40
2018-06-17T13:01:07.870Z,22.40
2018-06-17T13:03:37.140Z,22.40
2018-06-17T13:06:06.654Z,22.40
2018-06-17T13:08:36.371Z,22.40
2018-06-17T13:11:07.684Z,22.40
2018-06-17T13:13:37.298Z,22.40
2018-06-17T13:16:07.390Z,22.40
2018-06-17T13:21:04.852Z,22.40
2018-06-17T13:23:34.504Z,22.40
2018-06-17T13:26:05.477Z,22.30
2018-06-17T13:28:35.120Z,22.30
2018-06-17T13:31:04.488Z,22.30
2018-06-17T13:33:33.760Z,22.30
2018-06-17T13:38:31.761Z,22.30
2018-06-17T13:41:01.128Z,22.30
2018-06-17T13:43:30.381Z,22.30
2018-06-17T13:45:59.632Z,22.20
2018-06-17T13:48:28.877Z,22.20
2018-06-17T13:50:58.230Z,22.30
2018-06-17T13:53:27.504Z,22.20
2018-06-17T13:55:57.013Z,22.20
2018-06-17T13:58:26.332Z,22.20
2018-06-17T14:00:56.092Z,22.20
2018-06-17T14:03:25.353Z,22.20
2018-06-17T14:05:54.720Z,22.20
2018-06-17T14:08:24.001Z,22.20
2018-06-17T14:13:22.106Z,22.20
2018-06-17T14:15:51.419Z,22.20
2018-06-17T14:18:20.720Z,22.20
2018-06-17T14:20:50.121Z,22.20
2018-06-17T14:23:19.410Z,22.20
2018-06-17T14:25:48.657Z,22.20
2018-06-17T14:28:18.059Z,22.10
2018-06-17T14:30:47.456Z,22.20
2018-06-17T14:33:16.740Z,22.20
2018-06-17T14:35:46.013Z,22.20
2018-06-17T14:38:15.323Z,22.20
2018-06-17T14:40:49.792Z,22.20
2018-06-17T14:43:24.170Z,22.20
2018-06-17T14:46:01.570Z,22.20
2018-06-17T14:48:35.993Z,22.20
2018-06-17T14:51:10.462Z,22.20
2018-06-17T14:53:39.749Z,22.20
2018-06-17T14:56:08.975Z,22.20
2018-06-17T14:58:38.313Z,22.10
2018-06-17T15:01:07.653Z,22.10
2018-06-17T15:03:37.092Z,22.10
2018-06-17T15:06:06.497Z,22.20
2018-06-17T15:08:35.728Z,22.10
2018-06-17T15:11:05.085Z,22.10
2018-06-17T15:13:34.536Z,22.20
2018-06-17T15:16:03.856Z,22.20
2018-06-17T15:18:33.165Z,22.20
2018-06-17T15:21:04.497Z,22.20
2018-06-17T15:23:33.906Z,22.20
2018-06-17T15:26:03.238Z,22.20
2018-06-17T15:28:32.570Z,22.20
2018-06-17T15:31:07.156Z,22.20
2018-06-17T15:33:41.704Z,22.20
2018-06-17T15:36:16.051Z,22.20
2018-06-17T15:38:53.494Z,22.10
2018-06-17T15:41:25.580Z,22.10
2018-06-17T15:43:56.542Z,22.10
2018-06-17T15:46:26.435Z,22.10
2018-06-17T15:48:55.742Z,22.20
2018-06-17T15:51:25.045Z,22.10
2018-06-17T15:53:54.372Z,22.10
2018-06-17T15:56:23.693Z,22.10
2018-06-17T15:58:53.173Z,22.10
2018-06-17T16:01:22.772Z,22.10
2018-06-17T16:03:52.129Z,22.10
2018-06-17T16:06:21.482Z,22.10
2018-06-17T16:08:50.769Z,22.10
2018-06-17T16:11:20.073Z,22.10
2018-06-17T16:13:54.409Z,22.10
2018-06-17T16:16:28.896Z,22.10
2018-06-17T16:19:03.148Z,22.10
2018-06-17T16:21:32.521Z,22.10
2018-06-17T16:24:01.771Z,22.10
2018-06-17T16:26:31.009Z,22.10
2018-06-17T16:29:00.321Z,22.10
2018-06-17T16:31:29.757Z,22.10
2018-06-17T16:33:59.397Z,22.10
2018-06-17T16:36:28.681Z,22.10
2018-06-17T16:38:57.945Z,22.10
2018-06-17T16:41:27.249Z,22.20
2018-06-17T16:43:56.545Z,22.10
2018-06-17T16:46:25.817Z,22.20
2018-06-17T16:48:55.125Z,22.10
2018-06-17T16:51:29.540Z,22.10
2018-06-17T16:54:04.024Z,22.10
2018-06-17T16:58:44.076Z,22.20
2018-06-17T17:03:42.183Z,22.10
2018-06-17T17:06:11.701Z,22.10
2018-06-17T17:08:40.928Z,22.10
2018-06-17T17:11:10.381Z,22.10
2018-06-17T17:13:39.684Z,22.10
2018-06-17T17:16:09.053Z,22.10
2018-06-17T17:18:38.337Z,22.10
2018-06-17T17:21:07.672Z,22.10
2018-06-17T17:23:36.988Z,22.20
2018-06-17T17:26:06.258Z,22.20
2018-06-17T17:28:35.571Z,22.20
2018-06-17T17:31:05.032Z,22.20
2018-06-17T17:36:13.776Z,22.30
2018-06-17T17:38:49.014Z,22.20
2018-06-17T17:41:18.360Z,22.30
2018-06-17T17:43:47.621Z,22.30
2018-06-17T17:46:21.965Z,22.30
2018-06-17T17:48:51.263Z,22.30
2018-06-17T17:51:20.546Z,22.40
2018-06-17T17:53:49.879Z,22.40
2018-06-17T17:56:19.165Z,22.40
2018-06-17T17:58:48.440Z,22.40
2018-06-17T18:01:17.808Z,22.40
2018-06-17T18:03:47.138Z,22.40
2018-06-17T18:06:17.048Z,22.40
2018-06-17T18:08:46.311Z,22.40
2018-06-17T18:11:15.665Z,22.40
2018-06-17T18:13:44.921Z,22.40
2018-06-17T18:16:14.261Z,22.40
2018-06-17T18:18:43.560Z,22.40
2018-06-17T18:21:12.934Z,22.40
2018-06-17T18:23:42.248Z,22.40
2018-06-17T18:26:16.695Z,22.40
2018-06-17T18:28:51.167Z,22.40
2018-06-17T18:31:20.503Z,22.30
2018-06-17T18:33:54.954Z,22.30
2018-06-17T18:36:25.271Z,22.30
2018-06-17T18:38:54.614Z,22.30
2018-06-17T18:41:23.988Z,22.20
2018-06-17T18:43:53.428Z,22.20
2018-06-17T18:46:22.792Z,22.30
2018-06-17T18:48:52.094Z,22.20
2018-06-17T18:51:21.465Z,22.20
2018-06-17T18:53:50.734Z,22.20
2018-06-17T18:56:20.115Z,22.30
2018-06-17T18:58:49.389Z,22.20
2018-06-17T19:01:18.715Z,22.30
2018-06-17T19:03:47.969Z,22.30
2018-06-17T19:06:17.297Z,22.30
2018-06-17T19:08:52.291Z,22.30
2018-06-17T19:11:26.792Z,22.30
2018-06-17T19:14:58.897Z,22.30
2018-06-17T19:17:34.418Z,22.30
2018-06-17T19:20:03.782Z,22.30
2018-06-17T19:22:33.153Z,22.30
2018-06-17T19:25:02.401Z,22.30
2018-06-17T19:27:31.660Z,22.20
2018-06-17T19:30:00.912Z,22.20
2018-06-17T19:32:30.279Z,22.20
2018-06-17T19:34:59.512Z,22.20
2018-06-17T19:37:28.776Z,22.20
2018-06-17T19:39:58.564Z,22.20
2018-06-17T19:42:27.885Z,22.20
2018-06-17T19:44:57.107Z,22.20
2018-06-17T19:47:26.380Z,22.20
2018-06-17T19:50:01.109Z,22.20
2018-06-17T19:52:35.506Z,22.20
2018-06-17T19:55:09.845Z,22.20
2018-06-17T19:57:44.173Z,22.20
2018-06-17T20:00:18.504Z,22.20
2018-06-17T20:05:16.569Z,22.20
2018-06-17T20:07:45.773Z,22.20
2018-06-17T20:10:15.097Z,22.20
2018-06-17T20:12:44.276Z,22.20
2018-06-17T20:15:13.565Z,22.20
2018-06-17T20:17:42.781Z,22.20
2018-06-17T20:20:12.065Z,22.20
2018-06-17T20:22:41.374Z,22.20
2018-06-17T20:25:10.577Z,22.10
2018-06-17T20:27:39.768Z,22.10
2018-06-17T20:30:09.619Z,22.10
2018-06-17T20:32:43.989Z,22.10
2018-06-17T20:35:18.207Z,22.10
2018-06-17T20:37:52.581Z,22.10
2018-06-17T20:40:27.177Z,22.10
2018-06-17T20:43:01.526Z,22.10
2018-06-17T20:45:30.884Z,22.10
2018-06-17T20:48:00.165Z,22.10
2018-06-17T20:50:29.400Z,22.10
2018-06-17T20:52:58.655Z,22.10
2018-06-17T20:55:27.849Z,22.10
2018-06-17T20:57:57.124Z,22.00
2018-06-17T21:00:26.384Z,22.00
2018-06-17T21:02:55.583Z,22.00
2018-06-17T21:05:24.787Z,22.00
2018-06-17T21:07:53.970Z,22.00
2018-06-17T21:10:23.776Z,22.00
2018-06-17T21:12:53.250Z,22.00
2018-06-17T21:15:22.452Z,22.00
2018-06-17T21:17:52.270Z,22.00
2018-06-17T21:20:26.489Z,22.00
2018-06-17T21:24:04.717Z,22.00
2018-06-17T21:26:39.852Z,22.00
2018-06-17T21:29:09.036Z,22.00
2018-06-17T21:31:38.269Z,22.00
2018-06-17T21:34:07.456Z,21.90
2018-06-17T21:36:36.623Z,22.00
2018-06-17T21:39:08.387Z,21.90
2018-06-17T21:41:38.604Z,21.90
2018-06-17T21:44:08.420Z,21.90
2018-06-17T21:46:37.818Z,21.90
2018-06-17T21:49:07.047Z,21.90
2018-06-17T21:51:37.316Z,21.90
2018-06-17T21:54:06.512Z,21.90
2018-06-17T21:56:35.763Z,21.90
2018-06-17T21:59:04.971Z,21.90
2018-06-17T22:01:34.169Z,21.90
2018-06-17T22:04:08.370Z,21.90
2018-06-17T22:06:37.603Z,21.90
2018-06-17T22:09:13.532Z,21.90
2018-06-17T22:11:48.101Z,21.80
2018-06-17T22:14:22.489Z,21.90
2018-06-17T22:19:25.681Z,21.90
2018-06-17T22:21:54.897Z,21.90
2018-06-17T22:24:24.084Z,21.90
2018-06-17T22:26:53.321Z,21.80
2018-06-17T22:29:22.557Z,21.80
2018-06-17T22:31:51.784Z,21.80
2018-06-17T22:34:20.975Z,21.90
2018-06-17T22:36:50.218Z,21.80
2018-06-17T22:39:19.421Z,21.80
2018-06-17T22:41:48.706Z,21.80
2018-06-17T22:44:17.876Z,21.80
2018-06-17T22:46:47.112Z,21.80
2018-06-17T22:49:16.335Z,21.80
2018-06-17T22:51:45.665Z,21.80
2018-06-17T22:54:25.797Z,21.80
2018-06-17T22:57:00.317Z,21.80
2018-06-17T22:59:34.530Z,21.80
2018-06-17T23:02:08.926Z,21.80
2018-06-17T23:04:43.167Z,21.80
2018-06-17T23:07:17.380Z,21.80
2018-06-17T23:09:48.328Z,21.80
2018-06-17T23:12:17.656Z,21.80
2018-06-17T23:14:46.850Z,21.80
2018-06-17T23:17:16.400Z,21.80
2018-06-17T23:19:45.610Z,21.80
2018-06-17T23:22:14.863Z,21.80
2018-06-17T23:24:44.052Z,21.80
2018-06-17T23:27:13.297Z,21.80
2018-06-17T23:29:42.493Z,21.80
2018-06-17T23:32:11.753Z,21.80
2018-06-17T23:34:40.940Z,21.80
2018-06-17T23:37:10.156Z,21.80
2018-06-17T23:39:39.383Z,21.70
2018-06-17T23:42:08.685Z,21.70
2018-06-17T23:44:37.936Z,21.70
2018-06-17T23:47:12.272Z,21.70
2018-06-17T23:49:46.932Z,21.70
2018-06-17T23:52:21.289Z,21.70
2018-06-17T23:54:55.668Z,21.70
2018-06-17T23:57:24.929Z,21.70
2018-06-17T23:59:54.220Z,21.70
